sensor_id;sensor_type;location;lat;lon;timestamp;P1;durP1;ratioP1;P2;durP2;ratioP2
13032;SDS011;6583;42.632;23.298;2024-01-15T00:00:55;18.03;;;10.73;;
13032;SDS011;6583;42.632;23.298;2024-01-15T00:03:23;21.20;;;11.37;;
13032;SDS011;6583;42.632;23.298;2024-01-15T00:05:50;19.87;;;10.73;;
13032;SDS011;6583;42.632;23.298;2024-01-15T00:08:17;20.70;;;11.33;;
13032;SDS011;6583;42.632;23.298;2024-01-15T00:10:44;19.53;;;11.50;;
13032;SDS011;6583;42.632;23.298;2024-01-15T00:13:10;23.10;;;11.97;;
13032;SDS011;6583;42.632;23.298;2024-01-15T00:15:37;18.37;;;10.90;;
13032;SDS011;6583;42.632;23.298;2024-01-15T00:18:04;20.33;;;11.93;;
13032;SDS011;6583;42.632;23.298;2024-01-15T00:20:32;21.80;;;14.07;;
13032;SDS011;6583;42.632;23.298;2024-01-15T00:22:59;21.73;;;12.60;;
13032;SDS011;6583;42.632;23.298;2024-01-15T00:25:26;21.70;;;11.87;;
13032;SDS011;6583;42.632;23.298;2024-01-15T00:27:52;19.80;;;11.00;;
13032;SDS011;6583;42.632;23.298;2024-01-15T00:30:19;20.27;;;10.00;;
13032;SDS011;6583;42.632;23.298;2024-01-15T00:32:46;17.87;;;10.70;;
13032;SDS011;6583;42.632;23.298;2024-01-15T00:35:12;18.87;;;10.57;;
13032;SDS011;6583;42.632;23.298;2024-01-15T00:37:41;20.33;;;10.33;;
13032;SDS011;6583;42.632;23.298;2024-01-15T00:40:08;18.60;;;10.37;;
13032;SDS011;6583;42.632;23.298;2024-01-15T00:42:35;17.97;;;9.90;;
13032;SDS011;6583;42.632;23.298;2024-01-15T00:45:02;19.07;;;11.13;;
13032;SDS011;6583;42.632;23.298;2024-01-15T00:47:30;20.40;;;10.83;;
13032;SDS011;6583;42.632;23.298;2024-01-15T00:49:57;19.20;;;10.60;;
13032;SDS011;6583;42.632;23.298;2024-01-15T00:52:23;17.63;;;10.40;;
13032;SDS011;6583;42.632;23.298;2024-01-15T00:54:52;16.50;;;9.57;;
13032;SDS011;6583;42.632;23.298;2024-01-15T00:57:18;19.03;;;12.03;;
13032;SDS011;6583;42.632;23.298;2024-01-15T00:59:45;17.63;;;10.57;;
13032;SDS011;6583;42.632;23.298;2024-01-15T01:02:12;17.63;;;9.90;;
13032;SDS011;6583;42.632;23.298;2024-01-15T01:04:38;18.60;;;10.43;;
13032;SDS011;6583;42.632;23.298;2024-01-15T01:07:05;17.50;;;10.23;;
13032;SDS011;6583;42.632;23.298;2024-01-15T01:09:32;15.47;;;9.30;;
13032;SDS011;6583;42.632;23.298;2024-01-15T01:12:00;16.47;;;9.30;;
13032;SDS011;6583;42.632;23.298;2024-01-15T01:14:28;15.33;;;8.87;;
13032;SDS011;6583;42.632;23.298;2024-01-15T01:16:54;16.97;;;9.83;;
13032;SDS011;6583;42.632;23.298;2024-01-15T01:19:22;17.07;;;9.67;;
13032;SDS011;6583;42.632;23.298;2024-01-15T01:21:50;16.97;;;9.37;;
13032;SDS011;6583;42.632;23.298;2024-01-15T01:24:17;16.33;;;8.63;;
13032;SDS011;6583;42.632;23.298;2024-01-15T01:26:43;16.90;;;8.83;;
13032;SDS011;6583;42.632;23.298;2024-01-15T01:29:13;15.20;;;9.30;;
13032;SDS011;6583;42.632;23.298;2024-01-15T01:31:42;15.50;;;9.10;;
13032;SDS011;6583;42.632;23.298;2024-01-15T01:34:09;16.23;;;9.53;;
13032;SDS011;6583;42.632;23.298;2024-01-15T01:36:36;16.67;;;9.57;;
13032;SDS011;6583;42.632;23.298;2024-01-15T01:39:02;16.17;;;9.40;;
13032;SDS011;6583;42.632;23.298;2024-01-15T01:41:29;18.30;;;10.03;;
13032;SDS011;6583;42.632;23.298;2024-01-15T01:43:56;15.77;;;9.20;;
13032;SDS011;6583;42.632;23.298;2024-01-15T01:46:24;18.07;;;10.33;;
13032;SDS011;6583;42.632;23.298;2024-01-15T01:48:53;17.03;;;9.47;;
13032;SDS011;6583;42.632;23.298;2024-01-15T01:51:21;17.73;;;10.57;;
13032;SDS011;6583;42.632;23.298;2024-01-15T01:53:50;15.87;;;9.00;;
13032;SDS011;6583;42.632;23.298;2024-01-15T01:56:17;16.73;;;10.17;;
13032;SDS011;6583;42.632;23.298;2024-01-15T01:58:44;17.73;;;10.50;;
13032;SDS011;6583;42.632;23.298;2024-01-15T02:01:13;17.23;;;10.97;;
13032;SDS011;6583;42.632;23.298;2024-01-15T02:03:43;19.17;;;10.97;;
13032;SDS011;6583;42.632;23.298;2024-01-15T02:06:09;17.47;;;10.20;;
13032;SDS011;6583;42.632;23.298;2024-01-15T02:08:36;18.07;;;10.10;;
13032;SDS011;6583;42.632;23.298;2024-01-15T02:11:03;18.20;;;10.40;;
13032;SDS011;6583;42.632;23.298;2024-01-15T02:13:30;15.80;;;9.30;;
13032;SDS011;6583;42.632;23.298;2024-01-15T02:15:57;15.70;;;9.57;;
13032;SDS011;6583;42.632;23.298;2024-01-15T02:18:24;18.50;;;9.97;;
13032;SDS011;6583;42.632;23.298;2024-01-15T02:20:52;17.60;;;10.20;;
13032;SDS011;6583;42.632;23.298;2024-01-15T02:23:20;14.60;;;9.87;;
13032;SDS011;6583;42.632;23.298;2024-01-15T02:25:47;18.57;;;10.87;;
13032;SDS011;6583;42.632;23.298;2024-01-15T02:28:14;21.47;;;11.40;;
13032;SDS011;6583;42.632;23.298;2024-01-15T02:30:42;20.43;;;10.97;;
13032;SDS011;6583;42.632;23.298;2024-01-15T02:33:10;22.20;;;12.10;;
13032;SDS011;6583;42.632;23.298;2024-01-15T02:35:37;24.23;;;13.00;;
13032;SDS011;6583;42.632;23.298;2024-01-15T02:38:05;23.43;;;12.90;;
13032;SDS011;6583;42.632;23.298;2024-01-15T02:40:33;25.30;;;13.83;;
13032;SDS011;6583;42.632;23.298;2024-01-15T02:43:00;20.90;;;12.10;;
13032;SDS011;6583;42.632;23.298;2024-01-15T02:45:28;21.17;;;12.20;;
13032;SDS011;6583;42.632;23.298;2024-01-15T02:47:54;22.07;;;12.10;;
13032;SDS011;6583;42.632;23.298;2024-01-15T02:50:21;18.57;;;11.17;;
13032;SDS011;6583;42.632;23.298;2024-01-15T02:52:48;21.83;;;11.07;;
13032;SDS011;6583;42.632;23.298;2024-01-15T02:55:15;21.27;;;11.40;;
13032;SDS011;6583;42.632;23.298;2024-01-15T02:57:43;18.20;;;10.80;;
13032;SDS011;6583;42.632;23.298;2024-01-15T03:00:10;16.93;;;9.90;;
13032;SDS011;6583;42.632;23.298;2024-01-15T03:02:38;19.37;;;11.33;;
13032;SDS011;6583;42.632;23.298;2024-01-15T03:05:05;20.60;;;10.80;;
13032;SDS011;6583;42.632;23.298;2024-01-15T03:07:32;18.83;;;10.87;;
13032;SDS011;6583;42.632;23.298;2024-01-15T03:09:58;19.07;;;11.03;;
13032;SDS011;6583;42.632;23.298;2024-01-15T03:12:25;20.10;;;10.90;;
13032;SDS011;6583;42.632;23.298;2024-01-15T03:14:53;18.03;;;9.57;;
13032;SDS011;6583;42.632;23.298;2024-01-15T03:17:20;15.87;;;9.30;;
13032;SDS011;6583;42.632;23.298;2024-01-15T03:19:47;18.73;;;10.27;;
13032;SDS011;6583;42.632;23.298;2024-01-15T03:22:14;18.27;;;9.23;;
13032;SDS011;6583;42.632;23.298;2024-01-15T03:24:41;16.93;;;9.10;;
13032;SDS011;6583;42.632;23.298;2024-01-15T03:27:08;15.80;;;8.90;;
13032;SDS011;6583;42.632;23.298;2024-01-15T03:29:34;15.10;;;8.70;;
13032;SDS011;6583;42.632;23.298;2024-01-15T03:32:03;13.73;;;7.97;;
13032;SDS011;6583;42.632;23.298;2024-01-15T03:34:30;14.00;;;7.60;;
13032;SDS011;6583;42.632;23.298;2024-01-15T03:36:56;13.47;;;8.17;;
13032;SDS011;6583;42.632;23.298;2024-01-15T03:39:24;15.83;;;8.40;;
13032;SDS011;6583;42.632;23.298;2024-01-15T03:41:51;17.10;;;8.30;;
13032;SDS011;6583;42.632;23.298;2024-01-15T03:44:17;16.27;;;8.63;;
13032;SDS011;6583;42.632;23.298;2024-01-15T03:46:44;16.07;;;8.73;;
13032;SDS011;6583;42.632;23.298;2024-01-15T03:49:12;17.40;;;9.80;;
13032;SDS011;6583;42.632;23.298;2024-01-15T03:51:39;16.80;;;8.70;;
13032;SDS011;6583;42.632;23.298;2024-01-15T03:54:05;13.63;;;8.13;;
13032;SDS011;6583;42.632;23.298;2024-01-15T03:56:32;12.93;;;7.87;;
13032;SDS011;6583;42.632;23.298;2024-01-15T03:58:59;15.13;;;7.90;;
13032;SDS011;6583;42.632;23.298;2024-01-15T04:01:25;14.30;;;7.90;;
13032;SDS011;6583;42.632;23.298;2024-01-15T04:03:52;14.87;;;7.80;;
13032;SDS011;6583;42.632;23.298;2024-01-15T04:06:20;13.10;;;7.50;;
13032;SDS011;6583;42.632;23.298;2024-01-15T04:08:47;12.77;;;7.33;;
13032;SDS011;6583;42.632;23.298;2024-01-15T04:11:14;11.63;;;7.17;;
13032;SDS011;6583;42.632;23.298;2024-01-15T04:13:41;11.40;;;6.97;;
13032;SDS011;6583;42.632;23.298;2024-01-15T04:16:07;9.97;;;6.20;;
13032;SDS011;6583;42.632;23.298;2024-01-15T04:18:34;12.47;;;6.87;;
13032;SDS011;6583;42.632;23.298;2024-01-15T04:21:01;10.17;;;6.50;;
13032;SDS011;6583;42.632;23.298;2024-01-15T04:23:31;9.37;;;6.23;;
13032;SDS011;6583;42.632;23.298;2024-01-15T04:25:58;10.90;;;6.57;;
13032;SDS011;6583;42.632;23.298;2024-01-15T04:28:25;11.63;;;6.23;;
13032;SDS011;6583;42.632;23.298;2024-01-15T04:30:52;12.90;;;6.77;;
13032;SDS011;6583;42.632;23.298;2024-01-15T04:33:18;10.50;;;6.40;;
13032;SDS011;6583;42.632;23.298;2024-01-15T04:35:45;12.50;;;6.40;;
13032;SDS011;6583;42.632;23.298;2024-01-15T04:38:12;13.43;;;7.20;;
13032;SDS011;6583;42.632;23.298;2024-01-15T04:40:40;12.50;;;7.73;;
13032;SDS011;6583;42.632;23.298;2024-01-15T04:43:06;14.07;;;8.03;;
13032;SDS011;6583;42.632;23.298;2024-01-15T04:45:33;13.77;;;7.23;;
13032;SDS011;6583;42.632;23.298;2024-01-15T04:48:00;11.33;;;6.53;;
13032;SDS011;6583;42.632;23.298;2024-01-15T04:50:27;12.53;;;6.97;;
13032;SDS011;6583;42.632;23.298;2024-01-15T04:52:53;12.40;;;6.87;;
13032;SDS011;6583;42.632;23.298;2024-01-15T04:55:20;12.17;;;7.20;;
13032;SDS011;6583;42.632;23.298;2024-01-15T04:57:48;11.33;;;7.20;;
13032;SDS011;6583;42.632;23.298;2024-01-15T05:00:15;10.70;;;7.03;;
13032;SDS011;6583;42.632;23.298;2024-01-15T05:02:42;12.37;;;7.40;;
13032;SDS011;6583;42.632;23.298;2024-01-15T05:05:09;12.40;;;7.03;;
13032;SDS011;6583;42.632;23.298;2024-01-15T05:07:36;12.40;;;7.10;;
13032;SDS011;6583;42.632;23.298;2024-01-15T05:10:03;14.37;;;7.40;;
13032;SDS011;6583;42.632;23.298;2024-01-15T05:12:30;12.37;;;7.03;;
13032;SDS011;6583;42.632;23.298;2024-01-15T05:14:58;11.27;;;5.93;;
13032;SDS011;6583;42.632;23.298;2024-01-15T05:17:24;13.97;;;7.30;;
13032;SDS011;6583;42.632;23.298;2024-01-15T05:19:51;11.53;;;6.30;;
13032;SDS011;6583;42.632;23.298;2024-01-15T05:22:18;11.40;;;6.30;;
13032;SDS011;6583;42.632;23.298;2024-01-15T05:24:46;14.20;;;7.23;;
13032;SDS011;6583;42.632;23.298;2024-01-15T05:27:13;11.70;;;6.80;;
13032;SDS011;6583;42.632;23.298;2024-01-15T05:29:39;14.37;;;7.53;;
13032;SDS011;6583;42.632;23.298;2024-01-15T05:32:07;13.60;;;7.23;;
13032;SDS011;6583;42.632;23.298;2024-01-15T05:34:34;14.70;;;7.63;;
13032;SDS011;6583;42.632;23.298;2024-01-15T05:37:01;15.10;;;7.67;;
13032;SDS011;6583;42.632;23.298;2024-01-15T05:39:30;15.10;;;7.67;;
13032;SDS011;6583;42.632;23.298;2024-01-15T05:41:58;16.80;;;8.27;;
13032;SDS011;6583;42.632;23.298;2024-01-15T05:44:25;12.20;;;7.27;;
13032;SDS011;6583;42.632;23.298;2024-01-15T05:46:52;15.00;;;8.13;;
13032;SDS011;6583;42.632;23.298;2024-01-15T05:49:21;14.00;;;7.87;;
13032;SDS011;6583;42.632;23.298;2024-01-15T05:51:47;16.30;;;8.57;;
13032;SDS011;6583;42.632;23.298;2024-01-15T05:54:14;15.00;;;7.80;;
13032;SDS011;6583;42.632;23.298;2024-01-15T05:56:41;14.27;;;8.07;;
13032;SDS011;6583;42.632;23.298;2024-01-15T05:59:08;14.90;;;7.90;;
13032;SDS011;6583;42.632;23.298;2024-01-15T06:01:34;13.77;;;8.17;;
13032;SDS011;6583;42.632;23.298;2024-01-15T06:04:01;12.57;;;7.67;;
13032;SDS011;6583;42.632;23.298;2024-01-15T06:06:29;12.83;;;7.20;;
13032;SDS011;6583;42.632;23.298;2024-01-15T06:08:56;12.63;;;7.63;;
13032;SDS011;6583;42.632;23.298;2024-01-15T06:11:29;13.80;;;7.10;;
13032;SDS011;6583;42.632;23.298;2024-01-15T06:13:55;14.30;;;8.13;;
13032;SDS011;6583;42.632;23.298;2024-01-15T06:16:23;12.63;;;7.10;;
13032;SDS011;6583;42.632;23.298;2024-01-15T06:18:50;14.40;;;7.70;;
13032;SDS011;6583;42.632;23.298;2024-01-15T06:21:17;11.13;;;6.80;;
13032;SDS011;6583;42.632;23.298;2024-01-15T06:23:45;12.53;;;7.03;;
13032;SDS011;6583;42.632;23.298;2024-01-15T06:26:12;13.03;;;7.47;;
13032;SDS011;6583;42.632;23.298;2024-01-15T06:28:38;12.97;;;7.57;;
13032;SDS011;6583;42.632;23.298;2024-01-15T06:31:06;11.70;;;6.90;;
13032;SDS011;6583;42.632;23.298;2024-01-15T06:33:33;14.77;;;7.20;;
13032;SDS011;6583;42.632;23.298;2024-01-15T06:35:59;10.87;;;6.70;;
13032;SDS011;6583;42.632;23.298;2024-01-15T06:38:26;11.87;;;6.97;;
13032;SDS011;6583;42.632;23.298;2024-01-15T06:40:54;11.27;;;6.80;;
13032;SDS011;6583;42.632;23.298;2024-01-15T06:43:21;13.17;;;7.23;;
13032;SDS011;6583;42.632;23.298;2024-01-15T06:45:47;10.47;;;6.33;;
13032;SDS011;6583;42.632;23.298;2024-01-15T06:48:14;11.53;;;6.80;;
13032;SDS011;6583;42.632;23.298;2024-01-15T06:50:41;11.47;;;6.40;;
13032;SDS011;6583;42.632;23.298;2024-01-15T06:53:08;11.97;;;6.63;;
13032;SDS011;6583;42.632;23.298;2024-01-15T06:55:35;12.20;;;7.00;;
13032;SDS011;6583;42.632;23.298;2024-01-15T06:58:03;11.33;;;6.90;;
13032;SDS011;6583;42.632;23.298;2024-01-15T07:00:30;10.20;;;6.70;;
13032;SDS011;6583;42.632;23.298;2024-01-15T07:02:56;13.13;;;7.43;;
13032;SDS011;6583;42.632;23.298;2024-01-15T07:05:23;13.43;;;7.13;;
13032;SDS011;6583;42.632;23.298;2024-01-15T07:07:50;13.20;;;7.13;;
13032;SDS011;6583;42.632;23.298;2024-01-15T07:10:17;11.53;;;6.97;;
13032;SDS011;6583;42.632;23.298;2024-01-15T07:12:44;11.73;;;7.50;;
13032;SDS011;6583;42.632;23.298;2024-01-15T07:15:12;14.27;;;7.90;;
13032;SDS011;6583;42.632;23.298;2024-01-15T07:17:39;11.90;;;7.43;;
13032;SDS011;6583;42.632;23.298;2024-01-15T07:20:06;11.50;;;7.50;;
13032;SDS011;6583;42.632;23.298;2024-01-15T07:22:35;13.03;;;7.13;;
13032;SDS011;6583;42.632;23.298;2024-01-15T07:25:02;10.67;;;7.23;;
13032;SDS011;6583;42.632;23.298;2024-01-15T07:27:29;11.93;;;7.67;;
13032;SDS011;6583;42.632;23.298;2024-01-15T07:29:56;13.87;;;7.80;;
13032;SDS011;6583;42.632;23.298;2024-01-15T07:32:24;12.50;;;7.60;;
13032;SDS011;6583;42.632;23.298;2024-01-15T07:34:51;10.90;;;7.77;;
13032;SDS011;6583;42.632;23.298;2024-01-15T07:37:18;12.20;;;7.83;;
13032;SDS011;6583;42.632;23.298;2024-01-15T07:39:44;13.17;;;7.67;;
13032;SDS011;6583;42.632;23.298;2024-01-15T07:42:11;12.43;;;7.17;;
13032;SDS011;6583;42.632;23.298;2024-01-15T07:44:38;11.97;;;6.90;;
13032;SDS011;6583;42.632;23.298;2024-01-15T07:47:05;13.77;;;7.07;;
13032;SDS011;6583;42.632;23.298;2024-01-15T07:49:35;12.23;;;7.03;;
13032;SDS011;6583;42.632;23.298;2024-01-15T07:52:01;10.70;;;7.30;;
13032;SDS011;6583;42.632;23.298;2024-01-15T07:54:29;12.33;;;6.87;;
13032;SDS011;6583;42.632;23.298;2024-01-15T07:56:57;15.23;;;7.13;;
13032;SDS011;6583;42.632;23.298;2024-01-15T07:59:24;13.97;;;7.07;;
13032;SDS011;6583;42.632;23.298;2024-01-15T08:01:52;11.50;;;7.03;;
13032;SDS011;6583;42.632;23.298;2024-01-15T08:04:19;11.37;;;6.80;;
13032;SDS011;6583;42.632;23.298;2024-01-15T08:06:48;11.73;;;7.03;;
13032;SDS011;6583;42.632;23.298;2024-01-15T08:09:15;33.80;;;22.10;;
13032;SDS011;6583;42.632;23.298;2024-01-15T08:11:41;35.20;;;20.20;;
13032;SDS011;6583;42.632;23.298;2024-01-15T08:14:09;27.57;;;16.57;;
13032;SDS011;6583;42.632;23.298;2024-01-15T08:16:36;20.80;;;10.97;;
13032;SDS011;6583;42.632;23.298;2024-01-15T08:19:04;14.80;;;9.40;;
13032;SDS011;6583;42.632;23.298;2024-01-15T08:21:31;19.43;;;12.63;;
13032;SDS011;6583;42.632;23.298;2024-01-15T08:23:59;39.20;;;23.70;;
13032;SDS011;6583;42.632;23.298;2024-01-15T08:26:29;44.50;;;24.57;;
13032;SDS011;6583;42.632;23.298;2024-01-15T08:28:57;42.23;;;25.37;;
13032;SDS011;6583;42.632;23.298;2024-01-15T08:31:24;38.43;;;24.60;;
13032;SDS011;6583;42.632;23.298;2024-01-15T08:33:50;36.47;;;23.50;;
13032;SDS011;6583;42.632;23.298;2024-01-15T08:36:17;38.17;;;24.87;;
13032;SDS011;6583;42.632;23.298;2024-01-15T08:38:44;30.60;;;20.00;;
13032;SDS011;6583;42.632;23.298;2024-01-15T08:41:12;33.33;;;19.40;;
13032;SDS011;6583;42.632;23.298;2024-01-15T08:43:39;32.17;;;19.03;;
13032;SDS011;6583;42.632;23.298;2024-01-15T08:46:06;32.07;;;20.17;;
13032;SDS011;6583;42.632;23.298;2024-01-15T08:48:33;34.90;;;20.90;;
13032;SDS011;6583;42.632;23.298;2024-01-15T08:50:59;32.40;;;21.40;;
13032;SDS011;6583;42.632;23.298;2024-01-15T08:53:26;36.43;;;22.53;;
13032;SDS011;6583;42.632;23.298;2024-01-15T08:55:53;38.83;;;22.43;;
13032;SDS011;6583;42.632;23.298;2024-01-15T08:58:22;35.10;;;22.53;;
13032;SDS011;6583;42.632;23.298;2024-01-15T09:00:49;32.03;;;21.03;;
13032;SDS011;6583;42.632;23.298;2024-01-15T09:03:17;38.87;;;22.67;;
13032;SDS011;6583;42.632;23.298;2024-01-15T09:05:42;36.67;;;22.37;;
13032;SDS011;6583;42.632;23.298;2024-01-15T09:08:09;36.30;;;22.83;;
13032;SDS011;6583;42.632;23.298;2024-01-15T09:10:36;33.13;;;21.03;;
13032;SDS011;6583;42.632;23.298;2024-01-15T09:13:03;36.07;;;22.27;;
13032;SDS011;6583;42.632;23.298;2024-01-15T09:15:31;35.03;;;21.20;;
13032;SDS011;6583;42.632;23.298;2024-01-15T09:17:58;33.87;;;22.00;;
13032;SDS011;6583;42.632;23.298;2024-01-15T09:20:27;28.97;;;19.60;;
13032;SDS011;6583;42.632;23.298;2024-01-15T09:22:54;27.07;;;17.00;;
13032;SDS011;6583;42.632;23.298;2024-01-15T09:25:20;23.57;;;14.77;;
13032;SDS011;6583;42.632;23.298;2024-01-15T09:27:47;23.23;;;14.37;;
13032;SDS011;6583;42.632;23.298;2024-01-15T09:30:14;16.80;;;10.67;;
13032;SDS011;6583;42.632;23.298;2024-01-15T09:32:42;19.57;;;11.07;;
13032;SDS011;6583;42.632;23.298;2024-01-15T09:35:09;15.57;;;9.63;;
13032;SDS011;6583;42.632;23.298;2024-01-15T09:37:36;21.20;;;12.70;;
13032;SDS011;6583;42.632;23.298;2024-01-15T09:40:03;19.17;;;12.17;;
13032;SDS011;6583;42.632;23.298;2024-01-15T09:42:33;21.43;;;11.63;;
13032;SDS011;6583;42.632;23.298;2024-01-15T09:45:01;19.23;;;12.23;;
13032;SDS011;6583;42.632;23.298;2024-01-15T09:47:29;20.80;;;13.07;;
13032;SDS011;6583;42.632;23.298;2024-01-15T09:49:58;21.93;;;13.10;;
13032;SDS011;6583;42.632;23.298;2024-01-15T09:52:25;24.17;;;15.87;;
13032;SDS011;6583;42.632;23.298;2024-01-15T09:54:52;24.07;;;14.20;;
13032;SDS011;6583;42.632;23.298;2024-01-15T09:57:19;22.17;;;13.93;;
13032;SDS011;6583;42.632;23.298;2024-01-15T09:59:46;21.00;;;14.63;;
13032;SDS011;6583;42.632;23.298;2024-01-15T10:02:14;20.77;;;13.87;;
13032;SDS011;6583;42.632;23.298;2024-01-15T10:04:43;24.67;;;16.87;;
13032;SDS011;6583;42.632;23.298;2024-01-15T10:07:12;37.90;;;23.37;;
13032;SDS011;6583;42.632;23.298;2024-01-15T10:09:42;40.83;;;24.97;;
13032;SDS011;6583;42.632;23.298;2024-01-15T10:12:09;37.80;;;24.00;;
13032;SDS011;6583;42.632;23.298;2024-01-15T10:14:37;39.40;;;23.60;;
13032;SDS011;6583;42.632;23.298;2024-01-15T10:17:11;36.43;;;22.73;;
13032;SDS011;6583;42.632;23.298;2024-01-15T10:19:39;37.57;;;24.10;;
13032;SDS011;6583;42.632;23.298;2024-01-15T10:22:06;44.20;;;25.47;;
13032;SDS011;6583;42.632;23.298;2024-01-15T10:24:36;39.07;;;23.87;;
13032;SDS011;6583;42.632;23.298;2024-01-15T10:27:06;38.03;;;23.17;;
13032;SDS011;6583;42.632;23.298;2024-01-15T10:29:34;40.10;;;25.20;;
13032;SDS011;6583;42.632;23.298;2024-01-15T10:32:01;37.47;;;24.23;;
13032;SDS011;6583;42.632;23.298;2024-01-15T10:34:27;38.83;;;25.70;;
13032;SDS011;6583;42.632;23.298;2024-01-15T10:36:54;37.50;;;23.73;;
13032;SDS011;6583;42.632;23.298;2024-01-15T10:39:21;36.63;;;23.33;;
13032;SDS011;6583;42.632;23.298;2024-01-15T10:41:50;39.83;;;24.87;;
13032;SDS011;6583;42.632;23.298;2024-01-15T10:44:17;38.67;;;25.03;;
13032;SDS011;6583;42.632;23.298;2024-01-15T10:46:44;34.67;;;22.63;;
13032;SDS011;6583;42.632;23.298;2024-01-15T10:49:12;38.47;;;23.53;;
13032;SDS011;6583;42.632;23.298;2024-01-15T10:51:39;34.73;;;22.30;;
13032;SDS011;6583;42.632;23.298;2024-01-15T10:54:08;35.63;;;22.70;;
13032;SDS011;6583;42.632;23.298;2024-01-15T10:56:36;50.93;;;31.43;;
13032;SDS011;6583;42.632;23.298;2024-01-15T10:59:04;47.23;;;29.30;;
13032;SDS011;6583;42.632;23.298;2024-01-15T11:01:33;52.40;;;30.90;;
13032;SDS011;6583;42.632;23.298;2024-01-15T11:04:00;51.50;;;31.70;;
13032;SDS011;6583;42.632;23.298;2024-01-15T11:06:27;52.70;;;33.93;;
13032;SDS011;6583;42.632;23.298;2024-01-15T11:08:54;54.57;;;34.57;;
13032;SDS011;6583;42.632;23.298;2024-01-15T11:11:21;55.53;;;37.17;;
13032;SDS011;6583;42.632;23.298;2024-01-15T11:13:48;57.10;;;36.20;;
13032;SDS011;6583;42.632;23.298;2024-01-15T11:16:18;64.00;;;37.37;;
13032;SDS011;6583;42.632;23.298;2024-01-15T11:21:31;56.43;;;36.83;;
13032;SDS011;6583;42.632;23.298;2024-01-15T11:23:58;53.87;;;34.07;;
13032;SDS011;6583;42.632;23.298;2024-01-15T11:26:29;51.80;;;33.20;;
13032;SDS011;6583;42.632;23.298;2024-01-15T11:29:05;54.97;;;32.80;;
13032;SDS011;6583;42.632;23.298;2024-01-15T11:34:51;44.20;;;30.67;;
13032;SDS011;6583;42.632;23.298;2024-01-15T11:37:19;51.03;;;34.20;;
13032;SDS011;6583;42.632;23.298;2024-01-15T11:39:46;53.20;;;34.77;;
13032;SDS011;6583;42.632;23.298;2024-01-15T11:42:13;58.93;;;38.13;;
13032;SDS011;6583;42.632;23.298;2024-01-15T11:44:41;58.60;;;38.27;;
13032;SDS011;6583;42.632;23.298;2024-01-15T11:47:09;53.57;;;37.47;;
13032;SDS011;6583;42.632;23.298;2024-01-15T11:49:53;61.33;;;38.33;;
13032;SDS011;6583;42.632;23.298;2024-01-15T11:52:26;58.60;;;35.17;;
13032;SDS011;6583;42.632;23.298;2024-01-15T11:55:00;42.83;;;28.30;;
13032;SDS011;6583;42.632;23.298;2024-01-15T11:57:37;37.87;;;27.80;;
13032;SDS011;6583;42.632;23.298;2024-01-15T12:00:08;39.50;;;24.30;;
13032;SDS011;6583;42.632;23.298;2024-01-15T12:02:38;35.63;;;25.60;;
13032;SDS011;6583;42.632;23.298;2024-01-15T12:05:06;38.70;;;25.43;;
13032;SDS011;6583;42.632;23.298;2024-01-15T12:07:33;34.40;;;22.93;;
13032;SDS011;6583;42.632;23.298;2024-01-15T12:10:00;30.43;;;22.40;;
13032;SDS011;6583;42.632;23.298;2024-01-15T12:12:29;34.43;;;21.83;;
13032;SDS011;6583;42.632;23.298;2024-01-15T12:15:04;29.60;;;20.10;;
13032;SDS011;6583;42.632;23.298;2024-01-15T12:17:31;29.77;;;19.97;;
13032;SDS011;6583;42.632;23.298;2024-01-15T12:19:59;36.10;;;22.63;;
13032;SDS011;6583;42.632;23.298;2024-01-15T12:22:26;37.70;;;25.00;;
13032;SDS011;6583;42.632;23.298;2024-01-15T12:24:53;36.57;;;25.57;;
13032;SDS011;6583;42.632;23.298;2024-01-15T12:27:20;38.47;;;25.40;;
13032;SDS011;6583;42.632;23.298;2024-01-15T12:29:48;34.57;;;23.00;;
13032;SDS011;6583;42.632;23.298;2024-01-15T12:32:14;40.10;;;25.27;;
13032;SDS011;6583;42.632;23.298;2024-01-15T12:34:41;38.90;;;23.80;;
13032;SDS011;6583;42.632;23.298;2024-01-15T12:37:10;33.40;;;23.13;;
13032;SDS011;6583;42.632;23.298;2024-01-15T12:39:37;29.10;;;20.87;;
13032;SDS011;6583;42.632;23.298;2024-01-15T12:42:04;26.53;;;19.63;;
13032;SDS011;6583;42.632;23.298;2024-01-15T12:44:32;24.30;;;16.07;;
13032;SDS011;6583;42.632;23.298;2024-01-15T12:46:58;23.17;;;16.37;;
13032;SDS011;6583;42.632;23.298;2024-01-15T12:49:25;24.57;;;16.20;;
13032;SDS011;6583;42.632;23.298;2024-01-15T12:51:52;32.93;;;22.10;;
13032;SDS011;6583;42.632;23.298;2024-01-15T12:54:22;35.00;;;24.10;;
13032;SDS011;6583;42.632;23.298;2024-01-15T12:56:50;34.20;;;22.63;;
13032;SDS011;6583;42.632;23.298;2024-01-15T12:59:17;31.00;;;22.23;;
13032;SDS011;6583;42.632;23.298;2024-01-15T13:01:44;27.53;;;18.13;;
13032;SDS011;6583;42.632;23.298;2024-01-15T13:04:11;25.97;;;17.50;;
13032;SDS011;6583;42.632;23.298;2024-01-15T13:06:47;28.73;;;18.87;;
13032;SDS011;6583;42.632;23.298;2024-01-15T13:09:15;20.97;;;14.73;;
13032;SDS011;6583;42.632;23.298;2024-01-15T13:11:42;20.03;;;13.70;;
13032;SDS011;6583;42.632;23.298;2024-01-15T13:14:09;28.90;;;20.03;;
13032;SDS011;6583;42.632;23.298;2024-01-15T13:16:35;38.93;;;24.47;;
13032;SDS011;6583;42.632;23.298;2024-01-15T13:19:02;36.97;;;24.53;;
13032;SDS011;6583;42.632;23.298;2024-01-15T13:21:29;36.07;;;23.93;;
13032;SDS011;6583;42.632;23.298;2024-01-15T13:23:56;35.37;;;23.40;;
13032;SDS011;6583;42.632;23.298;2024-01-15T13:26:23;35.80;;;22.67;;
13032;SDS011;6583;42.632;23.298;2024-01-15T13:28:51;34.10;;;22.90;;
13032;SDS011;6583;42.632;23.298;2024-01-15T13:31:18;27.47;;;19.60;;
13032;SDS011;6583;42.632;23.298;2024-01-15T13:33:45;25.73;;;17.67;;
13032;SDS011;6583;42.632;23.298;2024-01-15T13:36:12;22.43;;;15.17;;
13032;SDS011;6583;42.632;23.298;2024-01-15T13:38:39;21.00;;;13.93;;
13032;SDS011;6583;42.632;23.298;2024-01-15T13:41:07;17.83;;;12.27;;
13032;SDS011;6583;42.632;23.298;2024-01-15T13:43:34;15.17;;;10.23;;
13032;SDS011;6583;42.632;23.298;2024-01-15T13:46:02;15.90;;;10.80;;
13032;SDS011;6583;42.632;23.298;2024-01-15T13:48:30;13.20;;;8.67;;
13032;SDS011;6583;42.632;23.298;2024-01-15T13:50:57;11.83;;;8.73;;
13032;SDS011;6583;42.632;23.298;2024-01-15T13:53:25;12.53;;;9.10;;
13032;SDS011;6583;42.632;23.298;2024-01-15T13:55:52;13.17;;;8.93;;
13032;SDS011;6583;42.632;23.298;2024-01-15T13:58:18;12.33;;;8.70;;
13032;SDS011;6583;42.632;23.298;2024-01-15T14:00:46;10.37;;;8.10;;
13032;SDS011;6583;42.632;23.298;2024-01-15T14:03:15;12.77;;;9.10;;
13032;SDS011;6583;42.632;23.298;2024-01-15T14:05:41;11.13;;;7.70;;
13032;SDS011;6583;42.632;23.298;2024-01-15T14:08:08;10.50;;;7.70;;
13032;SDS011;6583;42.632;23.298;2024-01-15T14:10:35;10.50;;;7.13;;
13032;SDS011;6583;42.632;23.298;2024-01-15T14:13:02;9.17;;;7.13;;
13032;SDS011;6583;42.632;23.298;2024-01-15T14:15:29;10.20;;;7.07;;
13032;SDS011;6583;42.632;23.298;2024-01-15T14:17:56;12.27;;;7.40;;
13032;SDS011;6583;42.632;23.298;2024-01-15T14:20:27;9.47;;;6.30;;
13032;SDS011;6583;42.632;23.298;2024-01-15T14:22:53;10.37;;;7.60;;
13032;SDS011;6583;42.632;23.298;2024-01-15T14:25:20;11.67;;;8.60;;
13032;SDS011;6583;42.632;23.298;2024-01-15T14:27:47;14.37;;;10.97;;
13032;SDS011;6583;42.632;23.298;2024-01-15T14:30:15;24.73;;;15.00;;
13032;SDS011;6583;42.632;23.298;2024-01-15T14:32:42;26.80;;;16.97;;
13032;SDS011;6583;42.632;23.298;2024-01-15T14:35:09;24.13;;;16.53;;